Selinsgrove, Pennsylvania
Current Conditions -  °F | °C
As of 2:53 PM on Wednesday 17 Dec 2014 (Local Time) from KSEG Reporting Station
Overcast Overcast  
Wind Chill:   Ceiling: 4700
Heat Index:   Visibility: 10mi
Dew Point: -1°   Wind: 7mph
Humidity: 60%   Direction: 280°W
Pressure: 29.94"   Gusts: 21mph
Location:  40.8°N, 76.86°W
Report Text: KSEG 171953Z AUTO 28006G18KT 10SM OVC047 07/M01 A2994 RMK AO2 RAE1857 SLP143 P0000 T00671006
Loading
Personal Weather Stations






























Interactive Weather Map New forecast layout! Learn more

10-Day Weather Forecast

Advertisements
Track Severe Weather on mobile